createdAt,value
2017-03-10T00:00:05.712Z,0
2017-03-10T00:01:05.720Z,0
2017-03-10T00:02:05.894Z,0
2017-03-10T00:03:05.782Z,0
2017-03-10T00:04:05.809Z,0
2017-03-10T00:05:05.832Z,0
2017-03-10T00:06:05.871Z,0
2017-03-10T00:07:05.879Z,0
2017-03-10T00:08:05.913Z,0
2017-03-10T00:09:05.973Z,0
2017-03-10T00:10:05.996Z,0
2017-03-10T00:11:06.021Z,0
2017-03-10T00:12:06.031Z,0
2017-03-10T00:13:06.090Z,0
2017-03-10T00:14:06.097Z,0
2017-03-10T00:15:06.328Z,0
2017-03-10T00:16:06.149Z,0
2017-03-10T00:17:06.177Z,0
2017-03-10T00:18:06.212Z,0
2017-03-10T00:19:06.213Z,0
2017-03-10T00:20:06.291Z,0
2017-03-10T00:21:06.300Z,0
2017-03-10T00:22:06.305Z,0
2017-03-10T00:23:06.358Z,0
2017-03-10T00:24:06.364Z,0
2017-03-10T00:25:06.404Z,0
2017-03-10T00:26:06.420Z,0
2017-03-10T00:27:06.448Z,0
2017-03-10T00:28:06.501Z,0
2017-03-10T00:29:06.524Z,0
2017-03-10T00:30:06.535Z,0
2017-03-10T00:31:06.568Z,0
2017-03-10T00:32:06.596Z,0
2017-03-10T00:33:06.754Z,0
2017-03-10T00:34:06.669Z,0
2017-03-10T00:35:06.692Z,0
2017-03-10T00:36:06.694Z,0
2017-03-10T00:37:06.757Z,0
2017-03-10T00:38:06.776Z,0
2017-03-10T00:39:06.800Z,0
2017-03-10T00:40:06.837Z,0
2017-03-10T00:41:06.844Z,0
2017-03-10T00:42:06.875Z,0
2017-03-10T00:43:07.142Z,0
2017-03-10T00:44:06.960Z,0
2017-03-10T00:45:06.946Z,0
2017-03-10T00:46:06.984Z,0
2017-03-10T00:47:07.009Z,0
2017-03-10T00:48:07.193Z,0
2017-03-10T00:49:07.071Z,0
2017-03-10T00:50:07.085Z,0
2017-03-10T00:51:07.124Z,0
2017-03-10T00:52:07.119Z,0
2017-03-10T00:53:07.177Z,0
2017-03-10T00:54:07.211Z,0
2017-03-10T00:55:07.256Z,0
2017-03-10T00:56:07.275Z,0
2017-03-10T00:57:07.260Z,0
2017-03-10T00:58:07.351Z,0
2017-03-10T00:59:07.337Z,0
2017-03-10T01:00:07.383Z,0
2017-03-10T01:01:07.397Z,0
2017-03-10T01:02:07.415Z,0
2017-03-10T01:03:07.465Z,0
2017-03-10T01:04:07.470Z,0
2017-03-10T01:05:07.516Z,0
2017-03-10T01:06:07.523Z,0
2017-03-10T01:07:07.571Z,0
2017-03-10T01:08:07.596Z,0
2017-03-10T01:09:07.624Z,0
2017-03-10T01:10:07.651Z,0
2017-03-10T01:11:07.680Z,0
2017-03-10T01:12:07.703Z,0
2017-03-10T01:13:07.718Z,0
2017-03-10T01:14:08.061Z,0
2017-03-10T01:15:07.781Z,0
2017-03-10T01:16:07.789Z,0
2017-03-10T01:17:07.826Z,0
2017-03-10T01:18:07.870Z,0
2017-03-10T01:19:08.008Z,0
2017-03-10T01:20:07.923Z,0
2017-03-10T01:21:07.961Z,0
2017-03-10T01:22:07.983Z,0
2017-03-10T01:23:07.992Z,0
2017-03-10T01:24:08.145Z,0
2017-03-10T01:25:08.088Z,0
2017-03-10T01:26:08.088Z,0
2017-03-10T01:27:08.122Z,0
2017-03-10T01:28:08.145Z,0
2017-03-10T01:29:08.281Z,0
2017-03-10T01:30:08.211Z,0
2017-03-10T01:31:08.204Z,0
2017-03-10T01:32:08.329Z,0
2017-03-10T01:33:08.287Z,0
2017-03-10T01:34:08.312Z,0
2017-03-10T01:35:08.338Z,0
2017-03-10T01:36:08.377Z,0
2017-03-10T01:37:08.381Z,0
2017-03-10T01:38:08.443Z,0
2017-03-10T01:39:08.428Z,0
2017-03-10T01:40:08.467Z,0
2017-03-10T01:41:08.488Z,0
2017-03-10T01:42:08.540Z,0
2017-03-10T01:43:08.574Z,0
2017-03-10T01:44:08.592Z,0
2017-03-10T01:45:08.618Z,0
2017-03-10T01:46:08.627Z,0
2017-03-10T01:47:08.661Z,0
2017-03-10T01:48:08.717Z,0
2017-03-10T01:49:08.719Z,0
2017-03-10T01:50:08.756Z,0
2017-03-10T01:51:08.816Z,0
2017-03-10T01:52:08.807Z,0
2017-03-10T01:53:08.828Z,0
2017-03-10T01:54:08.866Z,0
2017-03-10T01:55:09.027Z,0
2017-03-10T01:56:08.934Z,0
2017-03-10T01:57:08.952Z,0
2017-03-10T01:58:08.977Z,0
2017-03-10T01:59:08.983Z,0
2017-03-10T02:00:09.138Z,0
2017-03-10T02:01:09.066Z,0
2017-03-10T02:02:09.124Z,0
2017-03-10T02:03:09.126Z,0
2017-03-10T02:04:09.133Z,0
2017-03-10T02:05:09.268Z,0
2017-03-10T02:06:09.193Z,0
2017-03-10T02:07:09.215Z,0
2017-03-10T02:08:09.240Z,0
2017-03-10T02:09:09.283Z,0
2017-03-10T02:10:09.663Z,0
2017-03-10T02:11:09.334Z,0
2017-03-10T02:12:09.365Z,0
2017-03-10T02:13:09.376Z,0
2017-03-10T02:14:09.442Z,0
2017-03-10T02:15:09.448Z,0
2017-03-10T02:16:09.462Z,0
2017-03-10T02:17:09.485Z,0
2017-03-10T02:18:09.508Z,0
2017-03-10T02:19:09.539Z,0
2017-03-10T02:20:09.782Z,0
2017-03-10T02:21:09.586Z,0
2017-03-10T02:22:09.611Z,0
2017-03-10T02:23:09.679Z,0
2017-03-10T02:24:09.667Z,0
2017-03-10T02:25:09.704Z,0
2017-03-10T02:26:09.736Z,0
2017-03-10T02:27:09.778Z,0
2017-03-10T02:28:09.785Z,0
2017-03-10T02:29:09.820Z,0
2017-03-10T02:30:09.825Z,0
2017-03-10T02:31:09.886Z,0
2017-03-10T02:32:09.894Z,0
2017-03-10T02:33:09.934Z,0
2017-03-10T02:34:09.942Z,0
2017-03-10T02:35:09.980Z,0
2017-03-10T02:36:10.150Z,0
2017-03-10T02:37:10.051Z,0
2017-03-10T02:38:10.057Z,0
2017-03-10T02:39:10.103Z,0
2017-03-10T02:40:10.144Z,0
2017-03-10T02:41:10.308Z,0
2017-03-10T02:42:10.180Z,0
2017-03-10T02:43:10.193Z,0
2017-03-10T02:44:10.225Z,0
2017-03-10T02:45:10.267Z,0
2017-03-10T02:46:10.451Z,0
2017-03-10T02:47:10.311Z,0
2017-03-10T02:48:10.336Z,0
2017-03-10T02:49:10.352Z,0
2017-03-10T02:50:10.387Z,0
2017-03-10T02:51:10.528Z,0
2017-03-10T02:52:10.444Z,0
2017-03-10T02:53:10.470Z,0
2017-03-10T02:54:10.497Z,0
2017-03-10T02:55:10.536Z,0
2017-03-10T02:56:10.542Z,0
2017-03-10T02:57:10.591Z,0
2017-03-10T02:58:10.608Z,0
2017-03-10T02:59:10.665Z,0
2017-03-10T03:00:10.660Z,0
2017-03-10T03:01:10.694Z,0
2017-03-10T03:02:10.730Z,0
2017-03-10T03:03:10.730Z,0
2017-03-10T03:04:10.811Z,0
2017-03-10T03:05:10.788Z,0
2017-03-10T03:06:10.877Z,0
2017-03-10T03:07:10.865Z,0
2017-03-10T03:08:10.899Z,0
2017-03-10T03:09:10.905Z,0
2017-03-10T03:10:10.941Z,0
2017-03-10T03:11:10.965Z,0
2017-03-10T03:12:10.979Z,0
2017-03-10T03:13:10.991Z,0
2017-03-10T03:14:11.043Z,0
2017-03-10T03:15:11.123Z,0
2017-03-10T03:16:11.103Z,0
2017-03-10T03:17:11.118Z,0
2017-03-10T03:18:11.156Z,0
2017-03-10T03:19:11.176Z,0
2017-03-10T03:20:11.199Z,0
2017-03-10T03:21:11.240Z,0
2017-03-10T03:22:11.344Z,0
2017-03-10T03:23:11.282Z,0
2017-03-10T03:24:11.299Z,0
2017-03-10T03:25:11.338Z,0
2017-03-10T03:26:11.380Z,0
2017-03-10T03:27:11.561Z,0
2017-03-10T03:28:11.448Z,0
2017-03-10T03:29:11.450Z,0
2017-03-10T03:30:11.481Z,0
2017-03-10T03:31:11.527Z,0
2017-03-10T03:32:11.681Z,0
2017-03-10T03:33:11.555Z,0
2017-03-10T03:34:11.605Z,0
2017-03-10T03:35:11.619Z,0
2017-03-10T03:36:11.646Z,0
2017-03-10T03:37:11.665Z,0
2017-03-10T03:38:11.733Z,0
2017-03-10T03:39:11.740Z,0
2017-03-10T03:40:11.744Z,0
2017-03-10T03:41:11.780Z,0
2017-03-10T03:42:11.798Z,0
2017-03-10T03:43:11.825Z,0
2017-03-10T03:44:11.873Z,0
2017-03-10T03:45:11.881Z,0
2017-03-10T03:46:11.925Z,0
2017-03-10T03:47:11.962Z,0
2017-03-10T03:48:11.978Z,0
2017-03-10T03:49:11.988Z,0
2017-03-10T03:50:12.050Z,0
2017-03-10T03:51:12.048Z,0
2017-03-10T03:52:12.078Z,0
2017-03-10T03:53:12.104Z,0
2017-03-10T03:54:12.134Z,0
2017-03-10T03:55:12.161Z,0
2017-03-10T03:56:12.198Z,0
2017-03-10T03:57:12.225Z,0
2017-03-10T03:58:12.242Z,0
2017-03-10T03:59:12.267Z,0
2017-03-10T04:00:12.295Z,0
2017-03-10T04:01:12.322Z,0
2017-03-10T04:02:12.342Z,0
2017-03-10T04:03:12.377Z,0
2017-03-10T04:04:12.394Z,0
2017-03-10T04:05:12.431Z,0
2017-03-10T04:06:12.488Z,0
2017-03-10T04:07:12.501Z,0
2017-03-10T04:08:12.538Z,0
2017-03-10T04:09:12.550Z,0
2017-03-10T04:10:12.590Z,0
2017-03-10T04:11:12.605Z,0
2017-03-10T04:12:12.683Z,0
2017-03-10T04:13:12.663Z,0
2017-03-10T04:14:12.682Z,0
2017-03-10T04:15:12.700Z,0
2017-03-10T04:16:12.713Z,0
2017-03-10T04:17:12.763Z,0
2017-03-10T04:18:12.790Z,0
2017-03-10T04:19:12.967Z,0
2017-03-10T04:20:12.857Z,0
2017-03-10T04:21:12.847Z,0
2017-03-10T04:22:12.912Z,0
2017-03-10T04:23:12.908Z,0
2017-03-10T04:24:13.088Z,0
2017-03-10T04:25:12.961Z,0
2017-03-10T04:26:13.013Z,0
2017-03-10T04:27:13.030Z,0
2017-03-10T04:28:13.046Z,0
2017-03-10T04:29:13.179Z,0
2017-03-10T04:30:13.108Z,0
2017-03-10T04:31:13.147Z,0
2017-03-10T04:32:13.172Z,0
2017-03-10T04:33:13.207Z,0
2017-03-10T04:34:13.531Z,0
2017-03-10T04:35:13.248Z,0
2017-03-10T04:36:13.300Z,0
2017-03-10T04:37:13.311Z,0
2017-03-10T04:38:13.356Z,0
2017-03-10T04:39:13.363Z,0
2017-03-10T04:40:13.387Z,0
2017-03-10T04:41:13.429Z,0
2017-03-10T04:42:13.445Z,0
2017-03-10T04:43:13.466Z,0
2017-03-10T04:44:13.497Z,0
2017-03-10T04:45:13.546Z,0
2017-03-10T04:46:13.539Z,0
2017-03-10T04:47:13.568Z,0
2017-03-10T04:48:13.608Z,0
2017-03-10T04:49:13.637Z,0
2017-03-10T04:50:13.667Z,0
2017-03-10T04:51:13.678Z,0
2017-03-10T04:52:13.710Z,0
2017-03-10T04:53:13.745Z,0
2017-03-10T04:54:13.755Z,0
2017-03-10T04:55:13.808Z,0
2017-03-10T04:56:13.820Z,0
2017-03-10T04:57:13.852Z,0
2017-03-10T04:58:13.869Z,0
2017-03-10T04:59:13.895Z,0
2017-03-10T05:00:26.773Z,0
2017-03-10T05:01:14.127Z,0
2017-03-10T05:02:14.145Z,0
2017-03-10T05:03:14.185Z,0
2017-03-10T05:04:14.241Z,0
2017-03-10T05:05:14.229Z,0
2017-03-10T05:06:14.198Z,0
2017-03-10T05:07:14.250Z,0
2017-03-10T05:08:14.277Z,0
2017-03-10T05:09:14.294Z,0
2017-03-10T05:10:14.367Z,0
2017-03-10T05:11:14.373Z,0
2017-03-10T05:12:14.385Z,0
2017-03-10T05:13:14.422Z,0
2017-03-10T05:14:14.398Z,0
2017-03-10T05:15:14.469Z,0
2017-03-10T05:16:14.465Z,0
2017-03-10T05:17:14.540Z,0
2017-03-10T05:18:14.532Z,0
2017-03-10T05:19:14.566Z,0
2017-03-10T05:20:14.653Z,0
2017-03-10T05:21:14.649Z,0
2017-03-10T05:22:14.688Z,0
2017-03-10T05:23:15.003Z,0
2017-03-10T05:24:14.702Z,0
2017-03-10T05:25:14.782Z,0
2017-03-10T05:26:14.758Z,0
2017-03-10T05:27:14.767Z,0
2017-03-10T05:28:14.826Z,0
2017-03-10T05:29:14.833Z,0
2017-03-10T05:30:14.866Z,0
2017-03-10T05:31:14.888Z,0
2017-03-10T05:32:14.944Z,0
2017-03-10T05:33:14.968Z,0
2017-03-10T05:34:14.969Z,0
2017-03-10T05:35:15.075Z,0
2017-03-10T05:36:15.057Z,0
2017-03-10T05:37:15.083Z,0
2017-03-10T05:38:15.177Z,0
2017-03-10T05:39:15.188Z,0
2017-03-10T05:40:15.120Z,0
2017-03-10T05:41:15.142Z,0
2017-03-10T05:42:15.223Z,0
2017-03-10T05:43:15.270Z,0
2017-03-10T05:44:15.231Z,0
2017-03-10T05:45:15.269Z,0
2017-03-10T05:46:15.647Z,0
2017-03-10T05:47:15.333Z,0
2017-03-10T05:48:15.666Z,0
2017-03-10T05:49:15.423Z,0
2017-03-10T05:50:15.459Z,0
2017-03-10T05:51:15.786Z,0
2017-03-10T05:52:15.481Z,0
2017-03-10T05:53:15.534Z,0
2017-03-10T05:54:15.524Z,0
2017-03-10T05:55:15.600Z,0
2017-03-10T05:56:15.576Z,0
2017-03-10T05:57:15.596Z,0
2017-03-10T05:58:15.639Z,5
2017-03-10T05:59:15.695Z,5
2017-03-10T06:00:15.747Z,5
2017-03-10T06:01:15.728Z,5
2017-03-10T06:02:15.768Z,5
2017-03-10T06:03:15.767Z,5
2017-03-10T06:04:15.842Z,5
2017-03-10T06:05:15.772Z,5
2017-03-10T06:06:15.843Z,5
2017-03-10T06:07:15.876Z,10
2017-03-10T06:08:16.285Z,10
2017-03-10T06:09:15.980Z,10
2017-03-10T06:10:16.110Z,15
2017-03-10T06:11:15.940Z,20
2017-03-10T06:12:16.037Z,25
2017-03-10T06:13:16.044Z,25
2017-03-10T06:14:16.039Z,25
2017-03-10T06:15:16.285Z,25
2017-03-10T06:16:16.081Z,25
2017-03-10T06:17:16.184Z,25
2017-03-10T06:18:16.192Z,20
2017-03-10T06:19:16.579Z,20
2017-03-10T06:20:16.370Z,20
2017-03-10T06:21:16.234Z,15
2017-03-10T06:22:16.280Z,15
2017-03-10T06:23:16.316Z,15
2017-03-10T06:24:16.344Z,15
2017-03-10T06:25:16.376Z,20
2017-03-10T06:26:16.387Z,25
2017-03-10T06:27:16.484Z,25
2017-03-10T06:28:16.452Z,30
2017-03-10T06:29:16.551Z,30
2017-03-10T06:30:16.557Z,40
2017-03-10T06:31:16.584Z,45
2017-03-10T06:32:16.570Z,50
2017-03-10T06:33:16.577Z,50
2017-03-10T06:34:16.915Z,55
2017-03-10T06:35:16.949Z,60
2017-03-10T06:36:16.684Z,65
2017-03-10T06:37:16.797Z,65
2017-03-10T06:38:16.728Z,70
2017-03-10T06:39:16.752Z,75
2017-03-10T06:40:16.795Z,80
2017-03-10T06:41:16.845Z,80
2017-03-10T06:42:17.113Z,80
2017-03-10T06:43:16.897Z,75
2017-03-10T06:44:16.899Z,75
2017-03-10T06:45:17.003Z,75
2017-03-10T06:46:17.088Z,80
2017-03-10T06:47:16.991Z,85
2017-03-10T06:48:16.979Z,80
2017-03-10T06:49:17.086Z,80
2017-03-10T06:50:17.026Z,80
2017-03-10T06:51:17.300Z,80
2017-03-10T06:52:17.138Z,80
2017-03-10T06:53:17.179Z,80
2017-03-10T06:54:17.131Z,80
2017-03-10T06:55:17.184Z,80
2017-03-10T06:56:17.521Z,85
2017-03-10T06:57:17.300Z,95
2017-03-10T06:58:17.606Z,95
2017-03-10T06:59:17.304Z,90
2017-03-10T07:00:17.410Z,90
2017-03-10T07:01:17.380Z,95
2017-03-10T07:02:17.387Z,95
2017-03-10T07:03:17.408Z,90
2017-03-10T07:04:17.503Z,95
2017-03-10T07:05:17.440Z,95
2017-03-10T07:06:17.485Z,80
2017-03-10T07:07:17.585Z,85
2017-03-10T07:08:17.554Z,85
2017-03-10T07:09:17.593Z,90
2017-03-10T07:10:17.620Z,105
2017-03-10T07:11:17.667Z,115
2017-03-10T07:12:17.649Z,100
2017-03-10T07:13:17.704Z,90
2017-03-10T07:14:17.690Z,90
2017-03-10T07:15:17.722Z,90
2017-03-10T07:16:17.795Z,100
2017-03-10T07:17:17.787Z,100
2017-03-10T07:18:17.902Z,110
2017-03-10T07:19:17.864Z,115
2017-03-10T07:20:17.964Z,110
2017-03-10T07:21:17.946Z,115
2017-03-10T07:22:17.980Z,115
2017-03-10T07:23:17.972Z,120
2017-03-10T07:24:18.009Z,130
2017-03-10T07:25:19.390Z,135
2017-03-10T07:26:18.692Z,130
2017-03-10T07:27:18.717Z,130
2017-03-10T07:28:18.781Z,130
2017-03-10T07:29:18.789Z,130
2017-03-10T07:30:18.854Z,120
2017-03-10T07:31:18.803Z,120
2017-03-10T07:32:18.839Z,125
2017-03-10T07:33:18.904Z,155
2017-03-10T07:34:18.901Z,185
2017-03-10T07:35:18.890Z,215
2017-03-10T07:36:18.924Z,220
2017-03-10T07:37:19.039Z,235
2017-03-10T07:38:19.008Z,260
2017-03-10T07:39:19.107Z,250
2017-03-10T07:40:19.055Z,205
2017-03-10T07:41:19.073Z,175
2017-03-10T07:42:19.094Z,155
2017-03-10T07:43:19.088Z,170
2017-03-10T07:44:19.187Z,235
2017-03-10T07:45:19.250Z,215
2017-03-10T07:46:19.218Z,165
2017-03-10T07:47:19.292Z,145
2017-03-10T07:48:19.265Z,165
2017-03-10T07:49:19.375Z,170
2017-03-10T07:50:19.368Z,155
2017-03-10T07:51:19.393Z,150
2017-03-10T07:52:19.413Z,150
2017-03-10T07:53:19.441Z,125
2017-03-10T07:54:19.460Z,140
2017-03-10T07:55:19.491Z,140
2017-03-10T07:56:19.987Z,120
2017-03-10T07:57:19.493Z,110
2017-03-10T07:58:19.562Z,130
2017-03-10T07:59:19.650Z,150
2017-03-10T08:00:19.616Z,165
2017-03-10T08:01:19.690Z,160
2017-03-10T08:02:19.678Z,150
2017-03-10T08:03:19.794Z,180
2017-03-10T08:04:19.713Z,255
2017-03-10T08:05:19.819Z,340
2017-03-10T08:06:19.816Z,440
2017-03-10T08:07:19.821Z,445
2017-03-10T08:08:20.127Z,365
2017-03-10T08:09:19.876Z,270
2017-03-10T08:10:19.991Z,220
2017-03-10T08:11:19.990Z,200
2017-03-10T08:12:20.049Z,210
2017-03-10T08:13:20.064Z,220
2017-03-10T08:14:20.081Z,225
2017-03-10T08:15:20.693Z,245
2017-03-10T08:16:20.063Z,270
2017-03-10T08:17:20.099Z,320
2017-03-10T08:18:20.144Z,310
2017-03-10T08:19:20.139Z,270
2017-03-10T08:20:20.399Z,255
2017-03-10T08:21:20.265Z,340
2017-03-10T08:22:20.283Z,460
2017-03-10T08:23:20.243Z,510
2017-03-10T08:24:20.305Z,435
2017-03-10T08:25:20.413Z,345
2017-03-10T08:26:20.401Z,300
2017-03-10T08:27:20.675Z,335
2017-03-10T08:28:20.434Z,355
2017-03-10T08:29:20.417Z,450
2017-03-10T08:30:20.439Z,620
2017-03-10T08:31:20.514Z,950
2017-03-10T08:32:20.557Z,875
2017-03-10T08:33:20.508Z,655
2017-03-10T08:34:20.917Z,395
2017-03-10T08:35:20.759Z,345
2017-03-10T08:36:20.715Z,310
2017-03-10T08:37:20.699Z,240
2017-03-10T08:38:20.698Z,215
2017-03-10T08:39:20.755Z,255
2017-03-10T08:40:20.992Z,330
2017-03-10T08:41:20.768Z,300
2017-03-10T08:42:20.915Z,210
2017-03-10T08:43:20.892Z,190
2017-03-10T08:44:20.915Z,165
2017-03-10T08:45:21.041Z,185
2017-03-10T08:46:21.334Z,205
2017-03-10T08:47:20.980Z,205
2017-03-10T08:48:21.031Z,230
2017-03-10T08:49:21.024Z,185
2017-03-10T08:50:21.227Z,165
2017-03-10T08:51:21.159Z,165
2017-03-10T08:52:21.167Z,165
2017-03-10T08:53:21.209Z,155
2017-03-10T08:54:21.204Z,145
2017-03-10T08:55:21.392Z,175
2017-03-10T08:56:21.228Z,225
2017-03-10T08:57:21.621Z,330
2017-03-10T08:58:21.351Z,385
2017-03-10T08:59:21.301Z,340
2017-03-10T09:00:21.416Z,345
2017-03-10T09:01:21.395Z,320
2017-03-10T09:02:21.412Z,305
2017-03-10T09:03:21.498Z,285
2017-03-10T09:04:21.538Z,260
2017-03-10T09:05:21.586Z,275
2017-03-10T09:06:21.573Z,295
2017-03-10T09:07:21.591Z,260
2017-03-10T09:08:21.566Z,245
2017-03-10T09:09:21.647Z,245
2017-03-10T09:10:21.711Z,290
2017-03-10T09:11:21.691Z,295
2017-03-10T09:12:21.783Z,300
2017-03-10T09:13:21.819Z,315
2017-03-10T09:14:21.793Z,285
2017-03-10T09:15:21.831Z,270
2017-03-10T09:16:21.859Z,265
2017-03-10T09:17:21.910Z,250
2017-03-10T09:18:21.895Z,190
2017-03-10T09:19:21.976Z,215
2017-03-10T09:20:21.965Z,265
2017-03-10T09:21:22.210Z,255
2017-03-10T09:22:22.062Z,225
2017-03-10T09:23:22.021Z,215
2017-03-10T09:24:22.149Z,205
2017-03-10T09:25:22.172Z,195
2017-03-10T09:26:22.310Z,215
2017-03-10T09:27:22.180Z,155
2017-03-10T09:28:22.199Z,210
2017-03-10T09:29:22.289Z,300
2017-03-10T09:30:22.555Z,340
2017-03-10T09:31:22.531Z,310
2017-03-10T09:32:22.597Z,270
2017-03-10T09:33:22.351Z,245
2017-03-10T09:34:22.402Z,310
2017-03-10T09:35:22.402Z,290
2017-03-10T09:36:22.617Z,250
2017-03-10T09:37:22.490Z,290
2017-03-10T09:38:22.496Z,320
2017-03-10T09:39:22.616Z,310
2017-03-10T09:40:22.562Z,250
2017-03-10T09:41:22.835Z,290
2017-03-10T09:42:22.640Z,325
2017-03-10T09:43:22.951Z,335
2017-03-10T09:44:22.956Z,495
2017-03-10T09:45:22.663Z,615
2017-03-10T09:46:22.763Z,540
2017-03-10T09:47:22.800Z,575
2017-03-10T09:48:22.819Z,605
2017-03-10T09:49:22.789Z,570
2017-03-10T09:50:22.872Z,485
2017-03-10T09:51:22.865Z,450
2017-03-10T09:52:23.012Z,490
2017-03-10T09:53:22.959Z,400
2017-03-10T09:54:23.079Z,335
2017-03-10T09:55:23.044Z,325
2017-03-10T09:56:23.078Z,385
2017-03-10T09:57:23.087Z,510
2017-03-10T09:58:23.160Z,600
2017-03-10T09:59:23.166Z,675
2017-03-10T10:00:23.215Z,535
2017-03-10T10:01:23.190Z,370
2017-03-10T10:02:23.286Z,325
2017-03-10T10:03:23.250Z,340
2017-03-10T10:04:23.355Z,350
2017-03-10T10:05:23.448Z,355
2017-03-10T10:06:23.366Z,345
2017-03-10T10:07:23.414Z,340
2017-03-10T10:08:23.427Z,305
2017-03-10T10:09:23.809Z,280
2017-03-10T10:10:23.754Z,270
2017-03-10T10:11:23.509Z,330
2017-03-10T10:12:23.607Z,420
2017-03-10T10:13:23.596Z,420
2017-03-10T10:14:23.684Z,445
2017-03-10T10:15:24.182Z,515
2017-03-10T10:16:24.092Z,565
2017-03-10T10:17:23.697Z,545
2017-03-10T10:18:23.694Z,510
2017-03-10T10:19:23.803Z,470
2017-03-10T10:20:23.832Z,385
2017-03-10T10:21:23.861Z,295
2017-03-10T10:22:24.214Z,270
2017-03-10T10:23:23.886Z,280
2017-03-10T10:24:23.898Z,270
2017-03-10T10:25:24.114Z,270
2017-03-10T10:26:23.966Z,290
2017-03-10T10:27:24.014Z,270
2017-03-10T10:28:24.107Z,255
2017-03-10T10:29:24.040Z,260
2017-03-10T10:30:24.556Z,260
2017-03-10T10:31:24.101Z,215
2017-03-10T10:32:24.115Z,200
2017-03-10T10:33:24.213Z,175
2017-03-10T10:34:24.198Z,175
2017-03-10T10:35:24.272Z,210
2017-03-10T10:36:24.275Z,250
2017-03-10T10:37:24.416Z,295
2017-03-10T10:38:24.420Z,325
2017-03-10T10:39:24.358Z,350
2017-03-10T10:40:24.462Z,420
2017-03-10T10:41:24.468Z,415
2017-03-10T10:42:24.464Z,385
2017-03-10T10:43:24.801Z,380
2017-03-10T10:44:24.524Z,380
2017-03-10T10:45:24.551Z,350
2017-03-10T10:46:25.151Z,345
2017-03-10T10:47:24.650Z,335
2017-03-10T10:48:24.642Z,325
2017-03-10T10:49:25.163Z,290
2017-03-10T10:50:24.850Z,290
2017-03-10T10:51:24.759Z,320
2017-03-10T10:52:24.708Z,315
2017-03-10T10:53:24.820Z,310
2017-03-10T10:54:24.777Z,335
2017-03-10T10:55:24.805Z,405
2017-03-10T10:56:25.024Z,470
2017-03-10T10:57:24.899Z,520
2017-03-10T10:58:24.963Z,510
2017-03-10T10:59:24.942Z,490
2017-03-10T11:00:25.037Z,460
2017-03-10T11:01:25.048Z,405
2017-03-10T11:02:25.044Z,400
2017-03-10T11:03:25.056Z,405
2017-03-10T11:04:25.163Z,435
2017-03-10T11:05:25.185Z,430
2017-03-10T11:06:25.191Z,395
2017-03-10T11:07:25.189Z,440
2017-03-10T11:08:25.240Z,480
2017-03-10T11:09:25.244Z,525
2017-03-10T11:10:25.306Z,555
2017-03-10T11:11:25.317Z,575
2017-03-10T11:12:25.395Z,575
2017-03-10T11:13:25.455Z,595
2017-03-10T11:14:25.385Z,585
2017-03-10T11:15:25.451Z,550
2017-03-10T11:16:25.777Z,600
2017-03-10T11:17:25.480Z,565
2017-03-10T11:18:25.502Z,560
2017-03-10T11:19:25.597Z,495
2017-03-10T11:20:25.590Z,425
2017-03-10T11:21:25.664Z,425
2017-03-10T11:22:25.728Z,415
2017-03-10T11:23:25.697Z,410
2017-03-10T11:24:25.741Z,530
2017-03-10T11:25:25.787Z,500
2017-03-10T11:26:26.084Z,475
2017-03-10T11:27:26.355Z,485
2017-03-10T11:28:26.358Z,500
2017-03-10T11:29:26.264Z,555
2017-03-10T11:30:25.939Z,480
2017-03-10T11:31:25.954Z,520
2017-03-10T11:32:25.974Z,480
2017-03-10T11:33:26.011Z,430
2017-03-10T11:34:26.108Z,355
2017-03-10T11:35:26.036Z,330
2017-03-10T11:36:26.106Z,340
2017-03-10T11:37:26.146Z,320
2017-03-10T11:38:26.206Z,285
2017-03-10T11:39:26.499Z,270
2017-03-10T11:40:26.221Z,305
2017-03-10T11:41:26.274Z,365
2017-03-10T11:42:26.371Z,395
2017-03-10T11:43:26.276Z,395
2017-03-10T11:44:26.423Z,340
2017-03-10T11:45:26.375Z,295
2017-03-10T11:46:26.472Z,290
2017-03-10T11:47:26.478Z,260
2017-03-10T11:48:26.487Z,255
2017-03-10T11:49:26.508Z,265
2017-03-10T11:50:26.532Z,310
2017-03-10T11:51:26.633Z,400
2017-03-10T11:52:26.664Z,430
2017-03-10T11:53:26.682Z,420
2017-03-10T11:54:26.653Z,440
2017-03-10T11:55:26.723Z,465
2017-03-10T11:56:26.727Z,485
2017-03-10T11:57:27.041Z,445
2017-03-10T11:58:26.829Z,380
2017-03-10T11:59:26.870Z,370
2017-03-10T12:00:26.936Z,380
2017-03-10T12:01:26.939Z,405
2017-03-10T12:02:26.922Z,435
2017-03-10T12:03:26.984Z,470
2017-03-10T12:04:26.928Z,490
2017-03-10T12:05:27.388Z,505
2017-03-10T12:06:27.018Z,505
2017-03-10T12:07:27.049Z,505
2017-03-10T12:08:27.136Z,505
2017-03-10T12:09:27.142Z,475
2017-03-10T12:10:27.147Z,460
2017-03-10T12:11:27.158Z,490
2017-03-10T12:12:27.217Z,530
2017-03-10T12:13:27.327Z,535
2017-03-10T12:14:27.265Z,510
2017-03-10T12:15:27.301Z,490
2017-03-10T12:16:27.383Z,450
2017-03-10T12:17:27.339Z,445
2017-03-10T12:18:27.695Z,420
2017-03-10T12:19:27.441Z,465
2017-03-10T12:20:27.522Z,475
2017-03-10T12:21:27.519Z,480
2017-03-10T12:22:27.642Z,460
2017-03-10T12:23:27.571Z,465
2017-03-10T12:24:27.635Z,475
2017-03-10T12:25:27.606Z,460
2017-03-10T12:26:27.681Z,445
2017-03-10T12:27:27.716Z,445
2017-03-10T12:28:27.757Z,455
2017-03-10T12:29:27.815Z,450
2017-03-10T12:30:27.822Z,445
2017-03-10T12:31:27.812Z,435
2017-03-10T12:32:27.820Z,435
2017-03-10T12:33:27.827Z,435
2017-03-10T12:34:27.928Z,425
2017-03-10T12:35:28.030Z,385
2017-03-10T12:36:27.969Z,370
2017-03-10T12:37:28.321Z,375
2017-03-10T12:38:28.034Z,385
2017-03-10T12:39:28.065Z,385
2017-03-10T12:40:28.092Z,405
2017-03-10T12:41:28.093Z,425
2017-03-10T12:42:28.401Z,400
2017-03-10T12:43:28.196Z,405
2017-03-10T12:44:28.263Z,435
2017-03-10T12:45:28.314Z,465
2017-03-10T12:46:28.326Z,445
2017-03-10T12:47:28.320Z,390
2017-03-10T12:48:28.361Z,325
2017-03-10T12:49:28.346Z,255
2017-03-10T12:50:28.448Z,265
2017-03-10T12:51:28.423Z,295
2017-03-10T12:52:28.464Z,315
2017-03-10T12:53:28.481Z,295
2017-03-10T12:54:28.564Z,285
2017-03-10T12:55:28.535Z,310
2017-03-10T12:56:28.604Z,315
2017-03-10T12:57:28.712Z,310
2017-03-10T12:58:28.624Z,325
2017-03-10T12:59:28.680Z,345
2017-03-10T13:00:28.720Z,340
2017-03-10T13:01:28.819Z,330
2017-03-10T13:02:28.801Z,325
2017-03-10T13:03:28.818Z,320
2017-03-10T13:04:28.929Z,325
2017-03-10T13:05:28.924Z,340
2017-03-10T13:06:28.934Z,340
2017-03-10T13:07:28.981Z,335
2017-03-10T13:08:29.038Z,345
2017-03-10T13:09:28.991Z,360
2017-03-10T13:10:29.106Z,365
2017-03-10T13:11:29.090Z,345
2017-03-10T13:12:29.110Z,320
2017-03-10T13:13:29.100Z,320
2017-03-10T13:14:29.537Z,340
2017-03-10T13:15:29.230Z,355
2017-03-10T13:16:29.212Z,325
2017-03-10T13:17:29.269Z,330
2017-03-10T13:18:29.361Z,335
2017-03-10T13:19:29.350Z,315
2017-03-10T13:20:29.391Z,315
2017-03-10T13:21:29.391Z,360
2017-03-10T13:22:29.395Z,335
2017-03-10T13:23:29.455Z,375
2017-03-10T13:24:29.507Z,385
2017-03-10T13:25:29.524Z,380
2017-03-10T13:26:29.521Z,385
2017-03-10T13:27:29.599Z,370
2017-03-10T13:28:29.635Z,340
2017-03-10T13:29:29.603Z,330
2017-03-10T13:30:29.712Z,335
2017-03-10T13:31:29.752Z,330
2017-03-10T13:32:29.758Z,320
2017-03-10T13:33:29.765Z,305
2017-03-10T13:34:29.841Z,290
2017-03-10T13:35:29.830Z,270
2017-03-10T13:36:29.858Z,265
2017-03-10T13:37:29.887Z,250
2017-03-10T13:38:30.206Z,255
2017-03-10T13:39:30.224Z,260
2017-03-10T13:40:29.956Z,265
2017-03-10T13:41:29.972Z,285
2017-03-10T13:42:30.066Z,285
2017-03-10T13:43:30.412Z,290
2017-03-10T13:44:30.099Z,285
2017-03-10T13:45:30.104Z,285
2017-03-10T13:46:30.121Z,270
2017-03-10T13:47:30.213Z,265
2017-03-10T13:48:30.268Z,270
2017-03-10T13:49:30.276Z,270
2017-03-10T13:50:30.358Z,275
2017-03-10T13:51:30.380Z,275
2017-03-10T13:52:30.416Z,285
2017-03-10T13:53:30.388Z,275
2017-03-10T13:54:30.775Z,265
2017-03-10T13:55:30.478Z,275
2017-03-10T13:56:30.496Z,260
2017-03-10T13:57:30.516Z,245
2017-03-10T13:58:30.566Z,245
2017-03-10T13:59:30.560Z,245
2017-03-10T14:00:30.607Z,255
2017-03-10T14:01:30.628Z,270
2017-03-10T14:02:30.978Z,285
2017-03-10T14:03:30.931Z,280
2017-03-10T14:04:30.762Z,290
2017-03-10T14:05:30.765Z,275
2017-03-10T14:06:30.771Z,255
2017-03-10T14:07:30.815Z,235
2017-03-10T14:08:30.885Z,220
2017-03-10T14:09:30.867Z,190
2017-03-10T14:10:30.939Z,170
2017-03-10T14:11:30.909Z,170
2017-03-10T14:12:30.959Z,155
2017-03-10T14:13:30.973Z,135